< < Back
Terminal Aerodrome Forecast


Current Version              Previous Versions:   1  2  3  4  5  6  7  8  9  

Terminal Aerodrome Forecast

393
FTUS42 KFFC 281126
TAFFTY
TAF
KFTY 281126Z 2812/0112 04005KT P6SM BKN100
     FM281500 08011KT P6SM SCT035 BKN090
     FM010300 08006KT P6SM SCT015 BKN035
     FM010600 08005KT P6SM -RA BKN015
     FM011000 08003KT 4SM -RA OVC005=

Latest METAR

459
SAUS70 KWBC 281400 RRD
MTRFTY
METAR KFTY 281353Z 07010KT 10SM BKN110 04/M02 A3057 RMK AO2 SLP358
T00391022


USA.gov is the U.S. government's official web portal to all federal, state and local government web resources and services.